Time;durP1;ratioP1;P1;durP2;ratioP2;P2;SDS_P1;SDS_P2;PMS_P1;PMS_P2;Temp;Humidity;BMP_temperature;BMP_pressure;BME280_temperature;BME280_humidity;BME280_pressure;Samples;Min_cycle;Max_cycle;Signal;HPM_P1;HPM_P2
2023/08/11 00:00:59;;;;;;;11.50;1.70;;;;;;;14.98;100.00;101232.75;5233644;28;20081;-72
2023/08/11 00:03:29;;;;;;;12.18;2.45;;;;;;;14.95;100.00;101232.88;5232710;28;20078;-72
2023/08/11 00:06:00;;;;;;;9.50;1.70;;;;;;;15.00;100.00;101230.91;5233443;28;20024;-72
2023/08/11 00:08:30;;;;;;;7.85;1.60;;;;;;;14.99;100.00;101242.34;5214490;28;20518;-71
2023/08/11 00:11:01;;;;;;;8.23;1.45;;;;;;;14.96;100.00;101246.88;5217977;28;20056;-72
2023/08/11 00:13:32;;;;;;;8.48;1.77;;;;;;;14.93;100.00;101240.00;5232795;28;20029;-71
2023/08/11 00:16:03;;;;;;;7.68;1.63;;;;;;;15.02;100.00;101250.09;5233405;28;20071;-72
2023/08/11 00:18:33;;;;;;;11.85;2.00;;;;;;;15.11;100.00;101246.22;5231601;28;20024;-72
2023/08/11 00:21:03;;;;;;;6.97;1.90;;;;;;;15.16;100.00;101253.00;5232704;28;20035;-72
2023/08/11 00:23:35;;;;;;;8.20;1.52;;;;;;;15.34;100.00;101249.59;5235486;28;20024;-72
2023/08/11 00:26:06;;;;;;;6.35;1.60;;;;;;;15.35;100.00;101253.09;5234019;28;20031;-72
2023/08/11 00:28:37;;;;;;;12.13;2.15;;;;;;;15.37;100.00;101244.19;5234077;28;20024;-72
2023/08/11 00:31:08;;;;;;;10.48;1.95;;;;;;;15.44;100.00;101247.41;5228427;28;20036;-72
2023/08/11 00:33:38;;;;;;;13.60;1.60;;;;;;;15.39;100.00;101244.97;5229091;28;20028;-72
2023/08/11 00:36:09;;;;;;;10.70;1.60;;;;;;;15.35;100.00;101248.66;5226739;28;20016;-71
2023/08/11 00:38:40;;;;;;;9.52;1.50;;;;;;;15.30;100.00;101241.88;5229600;28;20077;-72
2023/08/11 00:41:10;;;;;;;6.95;1.77;;;;;;;15.35;100.00;101238.13;5230967;28;20016;-73
2023/08/11 00:43:41;;;;;;;3.65;1.20;;;;;;;15.33;100.00;101244.41;5229247;28;20475;-74
2023/08/11 00:46:13;;;;;;;9.35;1.77;;;;;;;15.37;100.00;101246.81;5226830;28;20033;-73
2023/08/11 00:48:43;;;;;;;6.95;1.70;;;;;;;15.36;100.00;101239.84;5228985;28;20110;-73
2023/08/11 00:51:15;;;;;;;8.88;1.80;;;;;;;15.36;100.00;101245.13;5226222;28;20491;-73
2023/08/11 00:53:45;;;;;;;9.27;2.20;;;;;;;15.32;100.00;101247.97;5234060;28;20024;-73
2023/08/11 00:56:22;;;;;;;8.10;1.58;;;;;;;15.33;100.00;101245.25;5215531;28;20044;-73
2023/08/11 00:58:53;;;;;;;11.45;1.80;;;;;;;15.36;100.00;101239.84;5227373;28;20069;-74
2023/08/11 01:01:24;;;;;;;13.73;2.15;;;;;;;15.33;100.00;101245.25;5218383;28;20056;-73
2023/08/11 01:03:54;;;;;;;12.00;2.22;;;;;;;15.32;100.00;101247.97;5230088;28;20044;-73
2023/08/11 01:06:45;;;;;;;13.02;1.85;;;;;;;15.34;100.00;101246.97;5230651;28;20064;-73
2023/08/11 01:09:50;;;;;;;17.50;2.40;;;;;;;15.39;100.00;101252.88;5233395;28;20030;-73
2023/08/11 01:12:53;;;;;;;11.55;2.00;;;;;;;15.48;100.00;101244.56;5232886;28;20124;-73
2023/08/11 01:15:37;;;;;;;8.80;2.17;;;;;;;15.46;100.00;101241.16;5199137;28;20028;-73
2023/08/11 01:18:09;;;;;;;13.40;1.67;;;;;;;15.43;100.00;101235.16;5235116;28;20773;-74
2023/08/11 01:20:40;;;;;;;6.07;1.50;;;;;;;15.58;100.00;101235.34;5234951;28;20025;-73
2023/08/11 01:23:18;;;;;;;13.18;1.92;;;;;;;15.62;100.00;101236.91;5232442;28;20042;-73
2023/08/11 01:25:49;;;;;;;11.45;2.25;;;;;;;15.47;100.00;101231.47;5219586;28;20542;-72
2023/08/11 01:28:20;;;;;;;10.82;2.10;;;;;;;15.40;100.00;101228.25;5234786;28;20030;-73
2023/08/11 01:30:50;;;;;;;9.25;1.83;;;;;;;15.55;100.00;101224.91;5216058;28;20040;-72
2023/08/11 01:33:20;;;;;;;12.40;2.10;;;;;;;15.48;100.00;101218.22;5222962;28;20404;-73
2023/08/11 01:35:51;;;;;;;9.68;1.85;;;;;;;15.51;100.00;101226.00;5235622;28;20028;-73
2023/08/11 01:38:21;;;;;;;9.77;1.88;;;;;;;15.40;100.00;101224.78;5238332;28;20028;-73
2023/08/11 01:40:51;;;;;;;10.60;1.65;;;;;;;15.40;100.00;101212.44;5235032;28;20035;-72
2023/08/11 01:43:22;;;;;;;7.93;1.65;;;;;;;15.33;100.00;101213.66;5239018;28;20481;-73
2023/08/11 01:45:53;;;;;;;6.15;1.45;;;;;;;15.33;100.00;101216.28;5237967;28;20505;-72
2023/08/11 01:48:25;;;;;;;5.85;1.40;;;;;;;15.42;100.00;101217.66;5236607;28;20037;-73
2023/08/11 01:50:55;;;;;;;8.85;2.17;;;;;;;15.54;100.00;101207.41;5235615;28;20020;-73
2023/08/11 01:53:26;;;;;;;6.95;1.63;;;;;;;15.55;100.00;101213.53;5236785;28;20054;-73
2023/08/11 01:55:56;;;;;;;10.75;1.67;;;;;;;15.43;100.00;101219.34;5217406;28;20017;-73
2023/08/11 01:58:27;;;;;;;10.23;1.60;;;;;;;15.41;100.00;101214.19;5218909;28;20115;-73
2023/08/11 02:00:57;;;;;;;8.63;1.80;;;;;;;15.38;100.00;101221.34;5232780;28;20017;-72
2023/08/11 02:03:27;;;;;;;6.13;1.38;;;;;;;15.41;100.00;101229.13;5215052;28;20477;-72
2023/08/11 02:05:58;;;;;;;6.95;1.70;;;;;;;15.50;100.00;101224.28;5235516;28;20111;-73
2023/08/11 02:08:29;;;;;;;5.18;1.55;;;;;;;15.66;100.00;101222.66;5234351;28;20037;-73
2023/08/11 02:10:59;;;;;;;10.05;2.22;;;;;;;15.74;100.00;101217.88;5234686;28;20035;-73
2023/08/11 02:13:29;;;;;;;5.68;1.42;;;;;;;15.78;100.00;101221.22;5219428;28;20086;-73
2023/08/11 02:16:00;;;;;;;7.95;1.58;;;;;;;15.74;100.00;101209.13;5234806;28;20025;-73
2023/08/11 02:18:30;;;;;;;7.18;1.75;;;;;;;15.67;100.00;101218.25;5214891;28;20024;-73
2023/08/11 02:21:01;;;;;;;6.47;1.85;;;;;;;15.69;100.00;101216.41;5217064;28;20094;-73
2023/08/11 02:23:32;;;;;;;6.65;1.50;;;;;;;15.72;100.00;101217.09;5217865;28;20128;-71
2023/08/11 02:26:03;;;;;;;5.22;1.25;;;;;;;15.72;100.00;101217.09;5216186;28;20119;-73
2023/08/11 02:28:33;;;;;;;4.85;1.23;;;;;;;15.67;100.00;101218.25;5234766;28;20325;-73
2023/08/11 02:31:03;;;;;;;4.40;1.73;;;;;;;15.60;100.00;101222.94;5233993;28;20035;-74
2023/08/11 02:33:34;;;;;;;10.23;1.73;;;;;;;15.68;100.00;101219.97;5234209;28;20020;-73
2023/08/11 02:36:04;;;;;;;6.40;1.48;;;;;;;15.65;100.00;101215.69;5231824;28;20035;-72
2023/08/11 02:38:35;;;;;;;4.88;1.30;;;;;;;15.54;100.00;101215.31;5232411;28;20029;-72
2023/08/11 02:41:05;;;;;;;9.07;1.20;;;;;;;15.59;100.00;101215.97;5235399;28;20379;-72
2023/08/11 02:43:36;;;;;;;6.30;1.60;;;;;;;15.57;100.00;101219.59;5235570;28;20371;-74
2023/08/11 02:46:07;;;;;;;5.30;1.52;;;;;;;15.51;100.00;101218.09;5233620;28;20056;-73
2023/08/11 02:48:38;;;;;;;5.53;1.50;;;;;;;15.61;100.00;101215.88;5232833;28;20415;-73
2023/08/11 02:51:08;;;;;;;4.70;1.60;;;;;;;15.81;100.00;101211.41;5232296;28;20024;-73
2023/08/11 02:53:39;;;;;;;4.40;1.60;;;;;;;15.85;100.00;101207.69;5233086;28;20086;-73
2023/08/11 02:56:13;;;;;;;7.80;1.40;;;;;;;15.83;100.00;101208.69;5234423;28;20047;-72
2023/08/11 02:58:43;;;;;;;8.95;1.63;;;;;;;15.83;100.00;101206.91;5219102;28;20394;-74
2023/08/11 03:01:14;;;;;;;5.55;1.27;;;;;;;15.80;100.00;101203.56;5233303;28;20029;-73
2023/08/11 03:03:44;;;;;;;6.13;1.70;;;;;;;15.82;100.00;101199.94;5217169;28;20031;-73
2023/08/11 03:06:14;;;;;;;6.07;1.63;;;;;;;15.89;100.00;101200.50;5217553;28;20491;-73
2023/08/11 03:08:45;;;;;;;7.38;1.55;;;;;;;15.90;100.00;101210.97;5232364;28;20021;-73
2023/08/11 03:11:15;;;;;;;5.97;1.52;;;;;;;15.72;100.00;101201.28;5230737;28;20066;-73
2023/08/11 03:13:46;;;;;;;5.68;1.55;;;;;;;15.76;100.00;101200.22;5233522;28;20036;-73
2023/08/11 03:16:16;;;;;;;5.68;1.52;;;;;;;15.78;100.00;101201.00;5230127;28;20031;-74
2023/08/11 03:18:46;;;;;;;5.70;1.40;;;;;;;15.78;100.00;101200.16;5231113;28;20474;-73
2023/08/11 03:21:17;;;;;;;6.35;2.17;;;;;;;15.80;100.00;101199.16;5236906;28;20108;-73
2023/08/11 03:23:47;;;;;;;4.20;1.42;;;;;;;15.87;100.00;101207.63;5229055;28;20025;-72
2023/08/11 03:26:18;;;;;;;6.72;1.35;;;;;;;15.86;100.00;101198.03;5234313;28;20020;-73
2023/08/11 03:28:48;;;;;;;8.30;1.50;;;;;;;15.92;100.00;101203.88;5229762;28;20028;-72
2023/08/11 03:31:19;;;;;;;8.10;1.58;;;;;;;15.84;100.00;101200.72;5230829;28;20583;-73
2023/08/11 03:33:49;;;;;;;4.45;1.30;;;;;;;15.80;100.00;101198.28;5230316;28;20100;-72
2023/08/11 03:36:19;;;;;;;8.65;1.67;;;;;;;15.73;100.00;101195.06;5228164;28;20036;-73
2023/08/11 03:38:50;;;;;;;6.88;1.60;;;;;;;15.69;100.00;101201.44;5230576;28;20060;-72
2023/08/11 03:41:21;;;;;;;8.95;1.80;;;;;;;15.68;100.00;101197.09;5233106;28;20024;-73
2023/08/11 03:43:52;;;;;;;6.60;1.40;;;;;;;15.78;100.00;101201.00;5232907;28;20025;-73
2023/08/11 03:46:22;;;;;;;8.48;1.52;;;;;;;15.81;100.00;101194.72;5219081;28;20394;-73
2023/08/11 03:48:52;;;;;;;6.65;1.50;;;;;;;15.76;100.00;101191.47;5216071;28;20033;-73
2023/08/11 03:51:22;;;;;;;3.95;1.50;;;;;;;15.77;100.00;101193.16;5229505;28;20082;-73
2023/08/11 03:53:53;;;;;;;4.43;1.40;;;;;;;15.86;100.00;101190.94;5228858;28;20024;-73
2023/08/11 03:56:23;;;;;;;5.65;1.60;;;;;;;15.79;100.00;101193.94;5232737;28;20008;-73
2023/08/11 03:58:53;;;;;;;9.20;1.60;;;;;;;15.80;100.00;101196.53;5230919;28;20021;-73
2023/08/11 04:01:24;;;;;;;4.90;1.50;;;;;;;15.90;100.00;101202.22;5228695;28;20032;-73
2023/08/11 04:03:54;;;;;;;2.90;1.20;;;;;;;15.90;100.00;101205.69;5213665;28;20063;-73
2023/08/11 04:06:31;;;;;;;10.88;1.50;;;;;;;15.85;100.00;101202.44;5233571;28;20129;-73
2023/08/11 04:09:02;;;;;;;14.73;1.55;;;;;;;15.91;100.00;101207.41;5228197;28;20073;-73
2023/08/11 04:11:32;;;;;;;5.80;1.40;;;;;;;15.95;100.00;101214.25;5216109;28;20188;-73
2023/08/11 04:14:03;;;;;;;8.35;1.88;;;;;;;15.93;100.00;101210.84;5212327;28;20549;-73
2023/08/11 04:16:33;;;;;;;7.05;1.35;;;;;;;15.89;100.00;101222.44;5229803;28;20375;-72
2023/08/11 04:19:04;;;;;;;4.75;1.50;;;;;;;15.96;100.00;101213.31;5216125;28;20039;-73
2023/08/11 04:21:35;;;;;;;5.07;1.50;;;;;;;16.13;100.00;101213.38;5232483;28;20325;-72
2023/08/11 04:24:05;;;;;;;2.38;1.02;;;;;;;16.01;100.00;101211.31;5234365;28;20059;-73
2023/08/11 04:26:35;;;;;;;3.90;1.48;;;;;;;16.05;100.00;101215.50;5211826;28;20028;-73
2023/08/11 04:29:06;;;;;;;8.43;1.60;;;;;;;16.11;100.00;101209.09;5236102;28;20036;-73
2023/08/11 04:31:36;;;;;;;4.60;1.40;;;;;;;16.16;100.00;101209.72;5234718;28;20082;-73
2023/08/11 04:34:06;;;;;;;12.90;1.95;;;;;;;16.02;100.00;101214.81;5235117;28;20067;-73
2023/08/11 04:36:37;;;;;;;4.75;1.40;;;;;;;16.16;100.00;101213.22;5231797;28;20021;-73
2023/08/11 04:39:07;;;;;;;5.40;2.05;;;;;;;16.15;100.00;101205.38;5229647;28;20043;-73
2023/08/11 04:41:38;;;;;;;5.78;1.60;;;;;;;16.17;100.00;101209.66;5219617;28;20032;-73
2023/08/11 04:44:08;;;;;;;7.13;1.48;;;;;;;16.14;100.00;101215.09;5236320;28;20028;-73
2023/08/11 04:46:39;;;;;;;8.40;1.52;;;;;;;16.15;100.00;101211.53;5237442;28;20024;-73
2023/08/11 04:49:09;;;;;;;4.83;1.30;;;;;;;16.31;100.00;101220.41;5234219;28;20682;-72
2023/08/11 04:51:39;;;;;;;4.97;1.50;;;;;;;16.28;100.00;101222.31;5215974;28;20271;-73
2023/08/11 04:54:11;;;;;;;3.40;1.30;;;;;;;16.31;100.00;101220.41;5235585;28;20274;-72
2023/08/11 04:56:42;;;;;;;3.10;1.25;;;;;;;16.39;100.00;101215.63;5234918;28;20013;-73
2023/08/11 04:59:13;;;;;;;6.28;1.50;;;;;;;16.27;100.00;101216.22;5231095;28;20021;-72
2023/08/11 05:01:43;;;;;;;5.47;1.30;;;;;;;16.38;100.00;101227.13;5220568;28;20060;-73
2023/08/11 05:04:13;;;;;;;5.00;1.30;;;;;;;16.40;100.00;101222.59;5216266;28;20274;-72
2023/08/11 05:06:43;;;;;;;2.30;1.20;;;;;;;16.55;100.00;101223.66;5233666;28;20079;-72
2023/08/11 05:09:14;;;;;;;4.40;1.42;;;;;;;16.57;100.00;101224.44;5233960;28;20048;-73
2023/08/11 05:11:44;;;;;;;3.00;1.42;;;;;;;16.56;100.00;101222.72;5235184;28;20036;-74
2023/08/11 05:14:15;;;;;;;5.43;1.50;;;;;;;16.67;100.00;101217.75;5215618;28;20119;-72
2023/08/11 05:16:46;;;;;;;5.75;1.50;;;;;;;16.61;100.00;101226.84;5232548;28;20135;-73
2023/08/11 05:19:16;;;;;;;5.10;1.52;;;;;;;16.67;100.00;101215.97;5232567;28;20495;-72
2023/08/11 05:21:46;;;;;;;7.70;2.00;;;;;;;16.63;100.00;101225.00;5233841;28;20025;-73
2023/08/11 05:24:17;;;;;;;3.53;1.38;;;;;;;16.72;100.00;101224.50;5213102;28;20119;-73
2023/08/11 05:26:47;;;;;;;4.75;1.33;;;;;;;16.70;100.00;101223.75;5237860;28;20036;-73
2023/08/11 05:29:17;;;;;;;2.28;1.13;;;;;;;16.75;100.00;101224.34;5232969;28;20554;-73
2023/08/11 05:31:48;;;;;;;4.35;1.38;;;;;;;16.85;100.00;101230.88;5216637;28;20482;-72
2023/08/11 05:34:18;;;;;;;4.17;1.43;;;;;;;16.87;100.00;101226.38;5231633;28;20071;-73
2023/08/11 05:36:48;;;;;;;3.47;1.25;;;;;;;16.96;100.00;101218.00;5235765;28;20273;-72
2023/08/11 05:39:19;;;;;;;3.35;1.67;;;;;;;17.04;100.00;101231.66;5219210;28;20021;-73
2023/08/11 05:41:49;;;;;;;6.28;1.63;;;;;;;17.02;100.00;101220.31;5236134;28;20016;-72
2023/08/11 05:44:19;;;;;;;4.75;1.45;;;;;;;17.04;100.00;101221.97;5231980;28;20490;-73
2023/08/11 05:46:49;;;;;;;7.50;1.40;;;;;;;17.23;100.00;101227.13;5212932;28;20029;-73
2023/08/11 05:49:20;;;;;;;4.75;1.75;;;;;;;17.34;100.00;101219.53;5217697;28;20275;-73
2023/08/11 05:51:50;;;;;;;4.95;1.35;;;;;;;17.39;100.00;101230.69;5234471;28;20170;-73
2023/08/11 05:54:20;;;;;;;5.45;1.10;;;;;;;17.52;100.00;101239.69;5235361;28;20447;-73
2023/08/11 05:56:52;;;;;;;2.08;1.27;;;;;;;17.48;100.00;101238.16;5232798;28;20029;-74
2023/08/11 05:59:23;;;;;;;3.97;1.52;;;;;;;17.52;100.00;101231.75;5234602;28;20020;-73
2023/08/11 06:01:54;;;;;;;5.05;1.30;;;;;;;17.52;100.00;101240.53;5219213;28;20815;-73
2023/08/11 06:04:24;;;;;;;4.53;1.40;;;;;;;17.54;100.00;101235.19;5203895;28;20166;-74
2023/08/11 06:06:54;;;;;;;3.28;1.10;;;;;;;17.57;100.00;101242.94;5234007;28;20021;-73
2023/08/11 06:09:25;;;;;;;7.05;1.60;;;;;;;18.31;100.00;101232.59;5237289;28;20628;-73
2023/08/11 06:11:55;;;;;;;6.40;1.33;;;;;;;18.38;100.00;101235.75;5234401;28;20073;-73
2023/08/11 06:14:25;;;;;;;4.17;1.20;;;;;;;18.54;100.00;101239.25;5241368;28;20025;-73
2023/08/11 06:16:56;;;;;;;6.65;1.40;;;;;;;18.61;100.00;101235.28;5238951;28;20629;-73
2023/08/11 06:19:26;;;;;;;3.03;1.20;;;;;;;18.73;100.00;101225.69;5219001;28;20017;-75
2023/08/11 06:21:57;;;;;;;4.35;1.73;;;;;;;19.73;98.79;101226.59;5218972;28;20086;-74
2023/08/11 06:24:29;;;;;;;5.90;1.50;;;;;;;21.64;86.04;101222.53;5238535;28;20397;-73
2023/08/11 06:27:02;;;;;;;3.53;1.02;;;;;;;23.22;77.93;101209.69;5235569;28;20024;-73
2023/08/11 06:29:32;;;;;;;11.15;1.50;;;;;;;24.34;74.97;101202.34;5218805;28;20020;-73
2023/08/11 06:32:03;;;;;;;5.00;1.00;;;;;;;24.49;71.26;101209.09;5218449;28;20070;-74
2023/08/11 06:34:33;;;;;;;2.40;1.08;;;;;;;24.27;70.09;101212.72;5237814;28;20456;-73
2023/08/11 06:37:03;;;;;;;1.38;0.75;;;;;;;24.55;71.28;101214.81;5236251;28;20025;-73
2023/08/11 06:39:34;;;;;;;3.15;1.10;;;;;;;24.62;70.59;101217.84;5237621;28;20494;-73
2023/08/11 06:42:04;;;;;;;2.03;0.90;;;;;;;26.31;68.16;101209.03;5260717;22;20048;-77
2023/08/11 06:44:34;;;;;;;3.65;1.20;;;;;;;26.21;67.27;101210.84;5238402;28;20759;-77
2023/08/11 06:47:04;;;;;;;3.95;0.90;;;;;;;25.62;68.39;101217.09;5238708;28;20056;-77
2023/08/11 06:49:35;;;;;;;7.20;1.17;;;;;;;26.84;64.90;101211.22;5237999;28;20214;-73
2023/08/11 06:52:05;;;;;;;4.30;1.20;;;;;;;27.19;66.10;101199.88;5237326;28;20282;-77
2023/08/11 06:54:35;;;;;;;2.30;0.90;;;;;;;26.59;67.24;101212.75;5237740;28;20081;-74
2023/08/11 06:57:06;;;;;;;2.07;0.80;;;;;;;28.26;62.45;101203.63;5236714;28;20245;-77
2023/08/11 06:59:36;;;;;;;4.87;0.97;;;;;;;26.91;64.97;101211.50;5236332;28;20032;-75
2023/08/11 07:02:06;;;;;;;5.47;1.00;;;;;;;29.23;61.50;101207.13;5235866;28;20519;-77
2023/08/11 07:04:36;;;;;;;4.80;1.07;;;;;;;29.67;60.71;101206.91;5238519;28;20028;-75
2023/08/11 07:07:07;;;;;;;2.70;1.10;;;;;;;29.36;58.90;101205.69;5235623;28;20028;-76
2023/08/11 07:09:38;;;;;;;3.13;0.82;;;;;;;31.98;54.08;101191.81;5235855;28;20032;-75
2023/08/11 07:12:08;;;;;;;2.97;1.15;;;;;;;29.64;60.19;101204.53;5237052;28;20021;-77
2023/08/11 07:14:39;;;;;;;2.30;1.00;;;;;;;30.49;57.43;101204.31;5218359;28;20075;-77
2023/08/11 07:17:12;;;;;;;1.83;0.88;;;;;;;29.30;60.58;101214.41;5216058;28;20282;-77
2023/08/11 07:19:42;;;;;;;2.92;0.90;;;;;;;31.31;56.79;101203.19;5219619;28;20032;-77
2023/08/11 07:22:13;;;;;;;3.83;1.17;;;;;;;31.22;56.46;101204.22;5236097;28;20053;-77
2023/08/11 07:24:43;;;;;;;3.70;1.37;;;;;;;30.73;56.40;101209.75;5237250;28;20032;-77
2023/08/11 07:27:13;;;;;;;1.95;0.98;;;;;;;30.31;57.62;101220.66;5232595;28;20028;-74
2023/08/11 07:29:43;;;;;;;3.53;1.00;;;;;;;30.55;56.66;101214.44;5233509;28;20115;-76
2023/08/11 07:32:14;;;;;;;5.07;1.03;;;;;;;31.07;57.35;101211.28;5237038;28;20039;-77
2023/08/11 07:34:44;;;;;;;4.67;1.13;;;;;;;30.76;55.98;101220.25;5236544;28;20020;-77
2023/08/11 07:37:14;;;;;;;2.73;1.00;;;;;;;31.70;54.28;101213.06;5236701;28;20071;-76
2023/08/11 07:39:45;;;;;;;2.37;1.10;;;;;;;33.25;51.37;101209.06;5218016;28;20035;-77
2023/08/11 07:42:15;;;;;;;3.90;1.13;;;;;;;31.65;54.42;101204.66;5237706;28;20306;-77
2023/08/11 07:44:45;;;;;;;3.40;1.30;;;;;;;32.28;53.24;101201.84;5237450;28;20042;-77
2023/08/11 07:47:15;;;;;;;2.77;1.10;;;;;;;31.83;54.07;101207.97;5236545;28;20032;-77
2023/08/11 07:49:46;;;;;;;1.60;1.00;;;;;;;30.05;56.64;101216.38;5235669;28;20402;-77
2023/08/11 07:52:17;;;;;;;2.58;1.10;;;;;;;32.45;53.98;101206.97;5236299;28;20031;-77
2023/08/11 07:54:47;;;;;;;3.08;1.00;;;;;;;31.71;54.88;101216.63;5235016;28;20029;-74
2023/08/11 07:57:18;;;;;;;3.53;1.20;;;;;;;31.30;55.99;101215.00;5218284;28;20032;-77
2023/08/11 07:59:48;;;;;;;3.03;1.10;;;;;;;30.75;56.13;101226.66;5234533;28;20032;-73
2023/08/11 08:02:19;;;;;;;2.55;1.20;;;;;;;31.18;56.75;101222.63;5217575;28;20111;-77
2023/08/11 08:04:49;;;;;;;2.63;1.30;;;;;;;29.58;57.71;101218.63;5234665;28;20020;-75
2023/08/11 08:07:19;;;;;;;3.63;1.30;;;;;;;30.39;56.80;101222.53;5233672;28;20478;-76
2023/08/11 08:09:49;;;;;;;3.65;1.60;;;;;;;29.54;56.82;101224.53;5234644;28;20025;-77
2023/08/11 08:12:20;;;;;;;4.00;1.60;;;;;;;30.62;55.79;101210.13;5237582;28;20103;-77
2023/08/11 08:14:50;;;;;;;2.73;1.47;;;;;;;31.06;55.28;101215.84;5216886;28;20607;-76
2023/08/11 08:17:21;;;;;;;3.97;1.52;;;;;;;30.43;55.26;101223.88;5218870;28;20477;-77
2023/08/11 08:19:51;;;;;;;2.47;1.20;;;;;;;31.74;55.60;101217.09;5232263;28;20070;-77
2023/08/11 08:22:21;;;;;;;3.00;1.10;;;;;;;31.90;54.69;101216.22;5231015;28;20112;-77
2023/08/11 08:24:52;;;;;;;3.00;0.90;;;;;;;34.62;51.13;101218.03;5231805;28;20036;-76
2023/08/11 08:27:25;;;;;;;1.77;0.87;;;;;;;33.23;50.68;101227.38;5236759;28;20038;-77
2023/08/11 08:29:55;;;;;;;1.98;0.88;;;;;;;34.28;50.83;101223.28;5234463;28;20406;-77
2023/08/11 08:32:25;;;;;;;0.97;0.70;;;;;;;32.55;51.98;101228.41;5234199;28;20306;-77
2023/08/11 08:34:56;;;;;;;1.25;0.60;;;;;;;32.34;54.05;101220.91;5232872;28;20486;-76
2023/08/11 08:37:28;;;;;;;1.00;0.70;;;;;;;33.98;52.61;101228.94;5216031;28;20048;-77
2023/08/11 08:39:58;;;;;;;2.05;0.60;;;;;;;35.26;46.37;101220.53;5233776;28;20275;-77
2023/08/11 08:42:29;;;;;;;1.20;0.70;;;;;;;29.96;54.28;101239.75;5235695;28;20437;-77
2023/08/11 08:45:00;;;;;;;1.30;0.63;;;;;;;31.40;53.25;101219.19;5234783;28;20105;-77
2023/08/11 08:47:32;;;;;;;1.55;0.82;;;;;;;32.37;52.73;101209.72;5232099;28;20044;-76
2023/08/11 08:50:03;;;;;;;1.08;0.80;;;;;;;30.44;54.76;101218.31;5234683;28;20453;-76
2023/08/11 08:52:34;;;;;;;1.73;0.80;;;;;;;31.99;52.31;101212.44;5234881;28;20115;-77
2023/08/11 08:55:05;;;;;;;2.42;0.60;;;;;;;32.31;52.07;101204.19;5235456;28;20127;-77
2023/08/11 08:57:36;;;;;;;1.75;0.80;;;;;;;32.36;54.34;101215.34;5231683;28;20031;-73
2023/08/11 09:00:07;;;;;;;0.93;0.70;;;;;;;33.10;51.48;101213.56;5236130;28;20029;-77
2023/08/11 09:02:39;;;;;;;1.95;0.75;;;;;;;32.15;53.55;101215.94;5232667;28;20028;-74
2023/08/11 09:05:09;;;;;;;1.63;0.90;;;;;;;29.98;57.28;101216.16;5233310;28;20029;-76
2023/08/11 09:07:39;;;;;;;2.73;1.00;;;;;;;30.19;56.73;101207.63;5234380;28;20274;-77
2023/08/11 09:10:10;;;;;;;1.30;0.80;;;;;;;30.01;57.06;101204.16;5233293;28;20274;-75
2023/08/11 09:12:42;;;;;;;1.00;0.70;;;;;;;30.43;56.11;101215.78;5233720;28;20490;-76
2023/08/11 09:15:12;;;;;;;1.13;0.80;;;;;;;31.33;55.30;101196.59;5236118;28;20032;-76
2023/08/11 09:17:43;;;;;;;1.33;0.90;;;;;;;31.59;53.35;101202.63;5231136;28;20406;-76
2023/08/11 09:20:17;;;;;;;3.33;0.77;;;;;;;30.79;55.24;101206.41;5228192;28;20502;-76
2023/08/11 09:22:49;;;;;;;2.15;0.70;;;;;;;31.55;54.84;101190.44;5212673;28;20033;-73
2023/08/11 09:25:19;;;;;;;1.75;0.70;;;;;;;30.30;57.27;101200.09;5233679;28;20108;-77
2023/08/11 09:27:50;;;;;;;1.80;0.80;;;;;;;29.88;57.08;101203.81;5232644;28;20382;-76
2023/08/11 09:30:21;;;;;;;6.30;0.95;;;;;;;29.15;58.95;101199.81;5233872;28;20021;-76
2023/08/11 09:32:51;;;;;;;3.28;0.80;;;;;;;27.98;60.65;101205.50;5227775;28;20024;-75
2023/08/11 09:35:23;;;;;;;2.20;1.07;;;;;;;28.25;60.85;101192.06;5233717;28;20544;-76
2023/08/11 09:37:55;;;;;;;1.60;0.98;;;;;;;27.81;60.86;101192.88;5233222;28;20467;-76
2023/08/11 09:40:26;;;;;;;1.10;0.80;;;;;;;28.56;61.18;101190.72;5237333;28;20115;-76
2023/08/11 09:42:56;;;;;;;1.42;0.98;;;;;;;28.41;58.71;101192.25;5234616;28;20162;-75
2023/08/11 09:45:30;;;;;;;1.08;0.82;;;;;;;28.18;61.78;101184.75;5236972;28;20021;-76
2023/08/11 09:48:00;;;;;;;1.58;0.95;;;;;;;28.25;60.58;101178.59;5231841;28;20040;-76
2023/08/11 09:50:34;;;;;;;1.50;1.10;;;;;;;27.74;61.21;101183.72;5218042;28;20033;-76
2023/08/11 09:53:05;;;;;;;0.93;0.80;;;;;;;28.39;61.88;101188.88;5234454;28;20063;-75
2023/08/11 09:55:38;;;;;;;1.73;0.80;;;;;;;28.28;61.28;101186.38;5234737;28;20096;-75
2023/08/11 09:58:11;;;;;;;1.45;0.77;;;;;;;28.04;62.27;101177.19;5233311;28;20035;-76
2023/08/11 10:00:42;;;;;;;2.30;0.77;;;;;;;27.75;62.50;101182.72;5234467;28;20024;-75
2023/08/11 10:03:19;;;;;;;1.08;0.88;;;;;;;27.62;63.02;101182.19;5233800;28;20542;-75
2023/08/11 10:05:53;;;;;;;2.40;1.00;;;;;;;27.03;64.78;101184.34;5230844;28;20025;-76
2023/08/11 10:08:28;;;;;;;1.50;0.90;;;;;;;26.62;65.35;101185.66;5215412;28;20029;-76
2023/08/11 10:10:59;;;;;;;1.67;0.80;;;;;;;26.89;63.50;101176.72;5233173;28;20032;-76
2023/08/11 10:13:30;;;;;;;1.25;0.85;;;;;;;27.42;64.05;101177.91;5239261;28;20514;-76
2023/08/11 10:16:01;;;;;;;1.05;0.80;;;;;;;26.44;63.81;101176.56;5231495;28;20025;-76
2023/08/11 10:18:31;;;;;;;2.38;0.90;;;;;;;27.13;64.91;101178.97;5231458;28;20395;-76
2023/08/11 10:21:03;;;;;;;2.22;1.10;;;;;;;26.77;65.77;101177.03;5232003;28;20064;-76
2023/08/11 10:23:34;;;;;;;1.08;0.80;;;;;;;26.58;64.98;101176.19;5232587;28;20021;-74
2023/08/11 10:26:04;;;;;;;1.27;0.90;;;;;;;26.52;64.25;101176.78;5236239;28;20183;-76
2023/08/11 10:28:35;;;;;;;2.25;0.75;;;;;;;27.05;63.52;101171.63;5222341;28;20036;-75
2023/08/11 10:31:06;;;;;;;1.10;0.80;;;;;;;27.17;63.92;101175.88;5236657;28;20028;-76
2023/08/11 10:33:36;;;;;;;1.10;0.65;;;;;;;27.02;63.50;101171.91;5218394;28;20021;-76
2023/08/11 10:36:07;;;;;;;2.57;1.03;;;;;;;27.03;63.12;101156.63;5234639;28;20029;-76
2023/08/11 10:38:37;;;;;;;1.30;0.70;;;;;;;27.26;66.91;101160.72;5215845;28;20301;-76
2023/08/11 10:41:09;;;;;;;1.42;0.85;;;;;;;26.68;65.45;101160.97;5217172;28;20286;-76
2023/08/11 10:43:42;;;;;;;1.58;0.68;;;;;;;26.69;65.43;101154.59;5236472;28;20032;-73
2023/08/11 10:46:29;;;;;;;1.30;0.70;;;;;;;26.81;66.17;101147.09;5216009;28;20074;-76
2023/08/11 10:49:20;;;;;;;1.67;0.90;;;;;;;26.74;65.49;101155.88;5232296;28;20046;-76
2023/08/11 10:51:52;;;;;;;1.50;0.70;;;;;;;26.84;66.08;101146.81;5234576;28;20029;-75
2023/08/11 10:54:23;;;;;;;1.60;0.80;;;;;;;27.18;66.48;101145.34;5236109;28;20395;-76
2023/08/11 10:56:54;;;;;;;1.35;0.60;;;;;;;27.43;67.45;101144.66;5230166;28;20347;-75
2023/08/11 10:59:27;;;;;;;0.75;0.60;;;;;;;27.45;65.88;101147.22;5235452;28;20107;-76
2023/08/11 11:01:59;;;;;;;1.05;0.68;;;;;;;27.68;63.79;101148.50;5232595;28;20025;-72
2023/08/11 11:04:33;;;;;;;2.90;0.82;;;;;;;27.45;65.22;101142.69;5234546;28;20032;-75
2023/08/11 11:07:04;;;;;;;1.05;0.60;;;;;;;27.28;65.88;101146.13;5229940;28;20034;-76
2023/08/11 11:09:34;;;;;;;1.48;0.52;;;;;;;27.20;66.16;101140.66;5233775;28;20513;-76
2023/08/11 11:12:05;;;;;;;1.80;0.80;;;;;;;27.25;66.36;101143.75;5233080;28;20028;-77
2023/08/11 11:14:36;;;;;;;1.83;0.60;;;;;;;27.07;63.74;101142.78;5232919;28;20031;-75
2023/08/11 11:17:06;;;;;;;1.15;0.75;;;;;;;27.08;64.47;101144.47;5231033;28;20028;-76
2023/08/11 11:19:36;;;;;;;1.00;0.60;;;;;;;27.01;67.41;101132.66;5229720;28;20605;-76
2023/08/11 11:22:07;;;;;;;0.87;0.50;;;;;;;26.82;64.64;101135.38;5210830;28;20032;-75
2023/08/11 11:24:38;;;;;;;1.90;0.77;;;;;;;26.72;64.40;101139.03;5214737;28;20286;-75
2023/08/11 11:27:08;;;;;;;0.75;0.70;;;;;;;26.88;67.58;101137.47;5233038;28;20028;-75
2023/08/11 11:29:38;;;;;;;2.05;0.70;;;;;;;26.84;65.92;101138.75;5216991;28;20170;-72
2023/08/11 11:32:09;;;;;;;0.70;0.60;;;;;;;27.18;65.45;101133.75;5232683;28;20024;-76
2023/08/11 11:34:39;;;;;;;3.37;0.70;;;;;;;27.28;66.34;101124.66;5215208;28;20744;-73
2023/08/11 11:37:10;;;;;;;1.10;0.52;;;;;;;27.55;65.50;101122.00;5226941;28;20271;-72